Time;durP1;ratioP1;P1;durP2;ratioP2;P2;SDS_P1;SDS_P2;PMS_P1;PMS_P2;Temp;Humidity;BMP_temperature;BMP_pressure;BME280_temperature;BME280_humidity;BME280_pressure;Samples;Min_cycle;Max_cycle;Signal;HPM_P1;HPM_P2
2021/05/13 00:02:16;;;;;;;15.27;11.20;;;359.30;2329.60;;;;;;5077256;28;20027;-86
2021/05/13 00:04:42;;;;;;;14.60;9.48;;;359.10;2329.60;;;;;;5079780;28;20062;-85
2021/05/13 00:07:08;;;;;;;15.35;9.57;;;359.30;2329.60;;;;;;5075977;28;20055;-86
2021/05/13 00:09:34;;;;;;;16.70;9.23;;;384.10;2329.60;;;;;;5062655;28;20408;-82
2021/05/13 00:12:02;;;;;;;11.88;10.02;;;384.10;2329.60;;;;;;5055810;28;20033;-87
2021/05/13 00:14:28;;;;;;;20.42;11.75;;;384.30;2329.60;;;;;;5055711;28;20028;-87
2021/05/13 00:16:54;;;;;;;15.68;10.60;;;384.20;2329.60;;;;;;5056001;28;20021;-87
2021/05/13 00:19:21;;;;;;;17.38;12.35;;;384.20;2329.60;;;;;;5053171;28;20124;-89
2021/05/13 00:21:47;;;;;;;20.20;13.95;;;384.00;2329.60;;;;;;5053187;28;20021;-89
2021/05/13 00:24:25;;;;;;;15.90;12.48;;;359.30;2329.60;;;;;;5055075;28;20052;-87
2021/05/13 00:26:51;;;;;;;17.92;13.52;;;359.10;2329.60;;;;;;5071216;28;20125;-87
2021/05/13 00:29:26;;;;;;;15.60;11.80;;;359.10;2329.60;;;;;;5053966;28;20028;-89
2021/05/13 00:31:52;;;;;;;17.50;12.43;;;359.30;2329.60;;;;;;5052993;28;20032;-91
2021/05/13 00:34:18;;;;;;;18.55;12.18;;;359.30;2329.60;;;;;;5053541;28;20053;-85
2021/05/13 00:36:44;;;;;;;14.75;11.18;;;359.20;2329.60;;;;;;5051902;28;20025;-86
2021/05/13 00:39:10;;;;;;;14.48;10.30;;;359.30;2329.60;;;;;;5051884;28;20072;-85
2021/05/13 00:41:38;;;;;;;15.00;10.00;;;359.10;2329.60;;;;;;5052100;28;20025;-83
2021/05/13 00:44:12;;;;;;;16.80;11.48;;;359.10;2329.60;;;;;;5051899;28;20027;-88
2021/05/13 00:46:39;;;;;;;17.58;11.55;;;359.00;2329.60;;;;;;5052245;28;20048;-86
2021/05/13 00:49:11;;;;;;;21.20;13.80;;;384.00;2329.60;;;;;;5054819;28;20029;-90
2021/05/13 00:51:38;;;;;;;19.25;13.15;;;359.10;2329.60;;;;;;5056135;28;20029;-86
2021/05/13 00:54:04;;;;;;;20.15;13.43;;;359.10;2329.60;;;;;;5056019;28;20478;-86
2021/05/13 00:56:31;;;;;;;16.63;12.40;;;384.30;2329.60;;;;;;5055800;28;20021;-85
2021/05/13 00:59:01;;;;;;;17.20;12.05;;;358.80;2329.60;;;;;;5055905;28;20048;-89
2021/05/13 01:01:38;;;;;;;14.18;10.80;;;358.70;2329.60;;;;;;5055982;28;20013;-86
2021/05/13 01:04:16;;;;;;;16.17;9.95;;;358.70;2329.60;;;;;;5055884;28;20028;-87
2021/05/13 01:06:44;;;;;;;17.85;10.05;;;358.60;2329.60;;;;;;5040728;28;20041;-86
2021/05/13 01:09:27;;;;;;;14.65;9.93;;;358.70;2329.60;;;;;;5039254;28;20025;-85
2021/05/13 01:12:02;;;;;;;15.15;10.30;;;358.70;2329.60;;;;;;5055367;28;20037;-85
2021/05/13 01:14:56;;;;;;;;;;;;;;;;;;;;;
2021/05/13 01:20:19;;;;;;;18.10;9.60;;;358.60;2329.60;;;;;;5067725;28;20039;-87
2021/05/13 01:23:13;;;;;;;17.38;10.00;;;358.70;2329.60;;;;;;5075473;28;20029;-85
2021/05/13 01:26:21;;;;;;;;;;;;;;;;;;;;;
2021/05/13 01:28:50;;;;;;;16.40;11.45;;;358.90;2329.60;;;;;;5068996;28;20039;-88
2021/05/13 01:31:18;;;;;;;18.83;12.93;;;358.80;2329.60;;;;;;5058891;28;20028;-87
2021/05/13 01:34:24;;;;;;;22.98;13.73;;;359.00;2329.60;;;;;;5059441;28;20028;-87
2021/05/13 01:50:50;;;;;;;15.63;11.32;;;358.70;2329.60;;;;;;4834941;29;20508;-87
2021/05/13 01:57:06;;;;;;;;;;;;;;;;;;;;;
2021/05/13 02:00:38;;;;;;;;;;;;;;;;;;;;;
2021/05/13 02:03:52;;;;;;;25.33;12.65;;;358.50;2329.60;;;;;;5041641;28;20048;-89
2021/05/13 02:13:53;;;;;;;24.23;13.15;;;333.60;2329.60;;;;;;5076240;28;20117;-88
2021/05/13 02:26:31;;;;;;;25.48;12.63;;;333.60;2329.60;;;;;;4995001;28;20060;-88
2021/05/13 02:28:59;;;;;;;17.80;11.70;;;333.50;2329.60;;;;;;5003519;28;20030;-86
2021/05/13 02:34:48;;;;;;;22.80;12.18;;;333.40;2329.60;;;;;;5014946;28;20144;-86
2021/05/13 02:37:34;;;;;;;23.80;11.13;;;333.00;2329.60;;;;;;5025765;28;20026;-88
2021/05/13 02:40:46;;;;;;;17.13;10.70;;;332.90;2329.60;;;;;;5006006;28;20069;-86
2021/05/13 02:44:31;;;;;;;27.33;12.73;;;333.10;2329.60;;;;;;5017369;28;20065;-83
2021/05/13 03:05:03;;;;;;;16.75;9.88;;;333.00;2329.60;;;;;;4917107;29;20039;-87
2021/05/13 03:08:38;;;;;;;16.25;10.20;;;333.00;2329.60;;;;;;4916854;29;20450;-87
2021/05/13 03:12:18;;;;;;;19.35;10.32;;;333.00;2329.60;;;;;;4934214;28;20035;-90
2021/05/13 04:03:33;;;;;;;;;;;;;;;;;;;;;
2021/05/13 04:20:53;;;;;;;23.55;12.57;;;307.60;2304.00;;;;;;4786895;30;20501;-88
2021/05/13 04:27:55;;;;;;;20.10;12.98;;;307.90;2304.00;;;;;;4813893;29;20109;-88
2021/05/13 04:34:55;;;;;;;26.20;14.85;;;307.40;2304.00;;;;;;4808625;29;20103;-89
2021/05/13 04:42:33;;;;;;;26.92;14.38;;;307.60;2304.00;;;;;;4772085;30;20046;-89
2021/05/13 04:50:00;;;;;;;;;;;;;;;;;;;;;
2021/05/13 05:10:33;;;;;;;28.17;16.60;;;333.20;2329.60;;;;;;4808238;29;20034;-85
2021/05/13 05:13:03;;;;;;;25.60;16.85;;;333.40;2329.60;;;;;;4798700;29;20072;-89
2021/05/13 05:19:49;;;;;;;32.00;17.92;;;333.00;2329.60;;;;;;4879745;29;20101;-88
2021/05/13 05:23:35;;;;;;;29.67;18.10;;;308.10;2304.00;;;;;;4898236;29;20452;-88
2021/05/13 05:27:11;;;;;;;28.65;17.45;;;308.10;2304.00;;;;;;4918726;29;20032;-89
2021/05/13 05:34:08;;;;;;;28.90;16.50;;;333.10;2329.60;;;;;;4862574;29;20120;-86
2021/05/13 05:37:30;;;;;;;24.52;16.65;;;333.20;2329.60;;;;;;4819170;29;20035;-87
2021/05/13 05:44:34;;;;;;;24.83;16.20;;;333.40;2329.60;;;;;;4888584;29;20573;-88
2021/05/13 06:08:51;;;;;;;23.80;13.07;;;359.10;2329.60;;;;;;4881036;29;20028;-89
2021/05/13 06:11:18;;;;;;;21.10;13.05;;;359.10;2329.60;;;;;;4973466;28;20037;-91
2021/05/13 06:13:44;;;;;;;20.60;13.32;;;359.20;2329.60;;;;;;5056997;28;20108;-90
2021/05/13 06:16:11;;;;;;;18.52;11.82;;;359.30;2329.60;;;;;;5058954;28;20036;-89
2021/05/13 06:19:22;;;;;;;18.98;11.65;;;384.10;2329.60;;;;;;5058935;28;20020;-88
2021/05/13 06:21:49;;;;;;;18.55;10.80;;;384.20;2329.60;;;;;;5072884;28;20048;-89
2021/05/13 06:24:15;;;;;;;17.38;9.90;;;384.30;2329.60;;;;;;5057537;28;20162;-87
2021/05/13 06:26:41;;;;;;;13.70;7.90;;;384.40;2329.60;;;;;;5058418;28;20079;-87
2021/05/13 06:29:08;;;;;;;12.30;8.63;;;384.40;2329.60;;;;;;5057924;28;20028;-89
2021/05/13 06:31:35;;;;;;;13.20;7.53;;;384.30;2329.60;;;;;;5057886;28;20017;-88
2021/05/13 06:34:01;;;;;;;14.45;8.05;;;384.70;2329.60;;;;;;5058303;28;20031;-89
2021/05/13 06:36:27;;;;;;;13.73;8.85;;;384.70;2329.60;;;;;;5057731;28;20108;-89
2021/05/13 06:38:53;;;;;;;16.83;10.00;;;384.80;2329.60;;;;;;5058182;28;20123;-88
2021/05/13 06:41:19;;;;;;;12.82;8.32;;;384.90;2329.60;;;;;;5057767;28;20033;-90
2021/05/13 06:43:45;;;;;;;22.30;9.30;;;409.90;2355.20;;;;;;5059155;28;20107;-88
2021/05/13 06:46:11;;;;;;;18.98;8.20;;;410.00;2355.20;;;;;;5056987;28;20056;-91
2021/05/13 06:48:39;;;;;;;20.63;9.82;;;410.20;2355.20;;;;;;5057204;28;20111;-84
2021/05/13 06:51:05;;;;;;;19.95;8.57;;;410.50;2355.20;;;;;;5075608;28;20036;-85
2021/05/13 06:53:31;;;;;;;14.25;7.43;;;410.30;2355.20;;;;;;5056388;28;20370;-82
2021/05/13 06:55:56;;;;;;;13.68;6.25;;;410.30;2355.20;;;;;;5055883;28;20086;-82
2021/05/13 06:58:23;;;;;;;12.20;6.65;;;435.30;2355.20;;;;;;5057074;28;20028;-84
2021/05/13 07:00:49;;;;;;;11.68;6.55;;;435.60;2355.20;;;;;;5056871;28;20052;-83
2021/05/13 07:03:16;;;;;;;12.45;7.07;;;435.60;2355.20;;;;;;5056505;28;20044;-80
2021/05/13 07:05:43;;;;;;;15.27;6.80;;;435.60;2355.20;;;;;;5074524;28;20115;-81
2021/05/13 07:08:09;;;;;;;12.05;8.32;;;435.70;2355.20;;;;;;5057157;28;20127;-82
2021/05/13 07:10:38;;;;;;;14.25;8.20;;;435.50;2355.20;;;;;;5056296;28;20036;-81
2021/05/13 07:13:04;;;;;;;11.45;7.47;;;435.50;2355.20;;;;;;5074445;28;20476;-82
2021/05/13 07:15:32;;;;;;;11.48;6.78;;;435.50;2355.20;;;;;;5056551;28;20491;-81
2021/05/13 07:17:58;;;;;;;14.48;7.57;;;435.40;2355.20;;;;;;5056214;28;20031;-81
2021/05/13 07:20:24;;;;;;;12.60;7.75;;;435.80;2355.20;;;;;;5056371;28;20025;-81
2021/05/13 07:22:52;;;;;;;14.63;7.97;;;460.80;2380.80;;;;;;5056393;28;20024;-82
2021/05/13 07:25:21;;;;;;;12.45;8.48;;;461.10;2380.80;;;;;;5055280;28;20049;-79
2021/05/13 07:27:47;;;;;;;13.18;8.73;;;461.40;2380.80;;;;;;5056823;28;20454;-80
2021/05/13 07:30:14;;;;;;;12.90;7.40;;;461.70;2380.80;;;;;;5055876;28;20082;-78
2021/05/13 07:32:40;;;;;;;9.65;6.13;;;486.50;2380.80;;;;;;5074587;28;20028;-79
2021/05/13 07:35:06;;;;;;;12.45;6.50;;;486.70;2380.80;;;;;;5056810;28;20060;-79
2021/05/13 07:37:32;;;;;;;11.52;5.05;;;486.90;2380.80;;;;;;5056258;28;20024;-79
2021/05/13 07:39:58;;;;;;;7.40;4.60;;;487.00;2380.80;;;;;;5056145;28;20554;-79
2021/05/13 07:42:24;;;;;;;15.10;5.65;;;487.10;2380.80;;;;;;5056634;28;20115;-79
2021/05/13 07:44:50;;;;;;;10.35;4.65;;;487.30;2380.80;;;;;;5055899;28;20378;-78
2021/05/13 07:47:18;;;;;;;9.68;6.03;;;512.20;2380.80;;;;;;5056739;28;20055;-78
2021/05/13 07:49:44;;;;;;;7.53;4.53;;;512.30;2380.80;;;;;;5056086;28;20032;-78
2021/05/13 07:52:10;;;;;;;13.10;6.57;;;512.30;2380.80;;;;;;5055883;28;20111;-78
2021/05/13 07:54:36;;;;;;;12.93;5.32;;;512.50;2380.80;;;;;;5074061;28;20576;-78
2021/05/13 07:57:05;;;;;;;13.43;6.45;;;512.70;2380.80;;;;;;5073559;28;20035;-84
2021/05/13 07:59:31;;;;;;;7.30;5.07;;;512.80;2380.80;;;;;;5073650;28;20081;-82
2021/05/13 08:01:57;;;;;;;8.55;5.13;;;537.70;2406.40;;;;;;5056023;28;20116;-80
2021/05/13 08:04:23;;;;;;;9.85;5.18;;;538.00;2406.40;;;;;;5055993;28;20102;-83
2021/05/13 08:06:49;;;;;;;13.27;6.28;;;538.20;2406.40;;;;;;5055403;28;20438;-80
2021/05/13 08:09:15;;;;;;;14.38;7.10;;;538.00;2406.40;;;;;;5055775;28;20470;-81
2021/05/13 08:11:41;;;;;;;13.52;5.93;;;538.00;2406.40;;;;;;5073872;28;20021;-80
2021/05/13 08:14:06;;;;;;;13.73;6.40;;;537.90;2406.40;;;;;;5055414;28;20028;-80
2021/05/13 08:16:32;;;;;;;15.60;5.10;;;537.90;2406.40;;;;;;5073418;28;20443;-80
2021/05/13 08:18:58;;;;;;;13.90;4.03;;;537.80;2406.40;;;;;;5072640;28;20107;-79
2021/05/13 08:21:24;;;;;;;12.50;3.90;;;537.60;2406.40;;;;;;5055885;28;20059;-80
2021/05/13 08:23:50;;;;;;;9.57;3.70;;;512.80;2380.80;;;;;;5055239;28;20056;-81
2021/05/13 08:26:16;;;;;;;10.45;4.70;;;512.50;2380.80;;;;;;5058827;28;20116;-80
2021/05/13 08:28:42;;;;;;;7.93;3.55;;;512.80;2380.80;;;;;;5077697;28;20397;-81
2021/05/13 08:31:07;;;;;;;10.15;4.22;;;512.60;2380.80;;;;;;5072915;28;20028;-81
2021/05/13 08:33:33;;;;;;;8.32;4.25;;;512.70;2380.80;;;;;;5091398;28;20052;-86
2021/05/13 08:35:59;;;;;;;10.82;4.70;;;512.80;2380.80;;;;;;5075236;28;20038;-78
2021/05/13 08:38:25;;;;;;;8.80;4.07;;;512.90;2380.80;;;;;;5075531;28;20050;-83
2021/05/13 08:40:51;;;;;;;8.15;2.88;;;512.90;2380.80;;;;;;5075486;28;20020;-82
2021/05/13 08:43:26;;;;;;;8.93;4.32;;;537.60;2252.80;;;;;;5076280;28;20024;-81
2021/05/13 08:45:52;;;;;;;12.70;4.30;;;537.60;2201.60;;;;;;5075849;28;20024;-80
2021/05/13 08:48:19;;;;;;;8.55;3.33;;;537.80;2278.40;;;;;;5075054;28;20504;-81
2021/05/13 08:50:46;;;;;;;8.05;3.65;;;537.70;2252.80;;;;;;5060193;28;20485;-80
2021/05/13 08:53:12;;;;;;;13.30;4.32;;;537.70;2201.60;;;;;;5055106;28;20056;-80
2021/05/13 08:55:38;;;;;;;9.23;4.28;;;537.80;2278.40;;;;;;5054034;28;20538;-80
2021/05/13 08:58:06;;;;;;;9.60;3.75;;;537.80;2227.20;;;;;;5055321;28;20025;-80
2021/05/13 09:00:32;;;;;;;14.18;4.65;;;538.20;2150.40;;;;;;5055700;28;20501;-80
2021/05/13 09:02:58;;;;;;;10.70;4.22;;;563.40;2201.60;;;;;;5054652;28;20072;-80
2021/05/13 09:05:24;;;;;;;9.60;3.42;;;564.10;2124.80;;;;;;5055431;28;20397;-81
2021/05/13 09:07:53;;;;;;;9.57;3.85;;;564.00;1971.20;;;;;;5055908;28;20078;-80
2021/05/13 09:10:19;;;;;;;10.27;3.67;;;564.10;1945.60;;;;;;5057798;28;20029;-80
2021/05/13 09:12:47;;;;;;;9.52;4.40;;;589.20;1868.80;;;;;;5058703;28;20115;-79
2021/05/13 09:15:18;;;;;;;15.73;4.72;;;589.40;1817.60;;;;;;5058460;28;20120;-79
2021/05/13 09:17:50;;;;;;;16.58;4.40;;;589.60;1843.20;;;;;;5058711;28;20115;-79
2021/05/13 09:20:26;;;;;;;13.70;4.43;;;589.40;1817.60;;;;;;5059386;28;20031;-79
2021/05/13 09:23:08;;;;;;;10.15;3.60;;;589.50;1894.40;;;;;;5059201;28;20032;-77
2021/05/13 09:25:34;;;;;;;8.88;3.55;;;614.50;1792.00;;;;;;5059556;28;20473;-80
2021/05/13 09:28:00;;;;;;;9.80;3.35;;;614.70;1740.80;;;;;;5058422;28;20043;-80
2021/05/13 09:30:29;;;;;;;12.32;4.32;;;615.00;1715.20;;;;;;5058595;28;20028;-85
2021/05/13 09:32:57;;;;;;;11.65;4.18;;;614.90;1715.20;;;;;;5077432;28;20023;-86
2021/05/13 09:35:24;;;;;;;9.70;2.90;;;614.60;1689.60;;;;;;5059039;28;20028;-79
2021/05/13 09:37:55;;;;;;;6.97;3.00;;;589.60;1664.00;;;;;;5058447;28;20071;-84
2021/05/13 09:40:42;;;;;;;14.07;3.30;;;589.30;1664.00;;;;;;5076408;28;20027;-82
2021/05/13 09:43:09;;;;;;;7.75;3.13;;;588.90;1689.60;;;;;;5057344;28;20488;-79
2021/05/13 09:45:48;;;;;;;14.02;5.40;;;588.90;1715.20;;;;;;5058632;28;20029;-78
2021/05/13 09:48:33;;;;;;;9.73;3.88;;;588.80;1715.20;;;;;;5058107;28;20028;-76
2021/05/13 09:51:23;;;;;;;10.85;3.72;;;564.10;1715.20;;;;;;5057634;28;20068;-79
2021/05/13 09:54:09;;;;;;;16.27;4.38;;;563.90;1715.20;;;;;;5058291;28;20029;-79
2021/05/13 09:56:40;;;;;;;16.15;5.20;;;563.80;1817.60;;;;;;5044575;28;20032;-80
2021/05/13 09:59:27;;;;;;;11.00;4.88;;;563.50;1843.20;;;;;;5075842;28;20044;-80
2021/05/13 10:02:04;;;;;;;16.60;9.35;;;538.50;1843.20;;;;;;5057923;28;20029;-79
2021/05/13 10:04:30;;;;;;;13.40;5.63;;;538.50;1920.00;;;;;;5075083;28;20132;-79
2021/05/13 10:06:56;;;;;;;12.25;3.47;;;563.40;1971.20;;;;;;5058073;28;20024;-78
2021/05/13 10:09:22;;;;;;;11.57;3.67;;;563.20;1894.40;;;;;;5057689;28;20028;-79
2021/05/13 10:11:54;;;;;;;15.48;3.67;;;538.50;1868.80;;;;;;5057186;28;20093;-80
2021/05/13 10:14:22;;;;;;;15.57;3.80;;;538.40;1945.60;;;;;;5057691;28;20032;-77
2021/05/13 10:16:49;;;;;;;15.05;3.85;;;538.40;1920.00;;;;;;5057610;28;20470;-77
2021/05/13 10:19:30;;;;;;;11.40;4.63;;;538.30;1945.60;;;;;;5075157;28;20029;-76
2021/05/13 10:21:59;;;;;;;17.90;4.93;;;538.20;1996.80;;;;;;5057462;28;20048;-78
2021/05/13 10:24:25;;;;;;;12.82;4.78;;;538.30;2048.00;;;;;;5067700;28;20020;-78
2021/05/13 10:26:52;;;;;;;14.45;4.43;;;538.40;2073.60;;;;;;5075751;28;20431;-79
2021/05/13 10:29:21;;;;;;;12.70;4.30;;;538.40;2073.60;;;;;;5072771;28;20131;-80
2021/05/13 10:32:20;;;;;;;11.85;5.30;;;538.30;1996.80;;;;;;5063180;28;20103;-81
2021/05/13 10:34:51;;;;;;;15.73;4.65;;;538.30;2022.40;;;;;;5057616;28;20066;-79
2021/05/13 10:37:31;;;;;;;16.48;3.78;;;538.40;2048.00;;;;;;5056251;28;20028;-79
2021/05/13 10:40:22;;;;;;;9.00;3.28;;;538.40;1996.80;;;;;;5062410;28;20020;-80
2021/05/13 10:43:05;;;;;;;8.23;3.35;;;538.40;1971.20;;;;;;5074799;28;20046;-77
2021/05/13 10:45:32;;;;;;;7.18;2.83;;;538.40;1945.60;;;;;;5072610;28;20036;-80
2021/05/13 10:48:15;;;;;;;8.07;3.40;;;538.50;1920.00;;;;;;5069284;28;20107;-78
2021/05/13 10:50:41;;;;;;;5.30;2.40;;;538.40;1920.00;;;;;;5054224;28;20048;-79
2021/05/13 10:53:36;;;;;;;7.97;2.97;;;538.40;1894.40;;;;;;5057455;28;20137;-80
2021/05/13 10:56:12;;;;;;;9.02;2.70;;;538.50;1868.80;;;;;;5060600;28;20093;-77
2021/05/13 10:58:58;;;;;;;9.38;3.00;;;538.30;1894.40;;;;;;5054068;28;20024;-79
2021/05/13 11:01:50;;;;;;;6.55;2.58;;;538.30;1945.60;;;;;;5075421;28;20462;-79
2021/05/13 11:04:25;;;;;;;10.70;4.00;;;538.30;1894.40;;;;;;5063174;28;20054;-80
2021/05/13 11:06:53;;;;;;;4.60;2.40;;;538.40;1920.00;;;;;;5070016;28;20036;-81
2021/05/13 11:09:38;;;;;;;11.30;2.72;;;538.40;1817.60;;;;;;5065835;28;22252;-84
2021/05/13 11:12:23;;;;;;;7.47;2.33;;;538.30;1817.60;;;;;;5069924;28;20028;-81
2021/05/13 11:20:23;;;;;;;7.65;2.78;;;538.20;1971.20;;;;;;5074337;28;20096;-83
2021/05/13 11:22:56;;;;;;;13.05;4.03;;;537.90;1920.00;;;;;;5061231;28;20370;-83
2021/05/13 11:25:26;;;;;;;6.93;2.33;;;537.60;1945.60;;;;;;5068340;28;20054;-83
2021/05/13 11:27:52;;;;;;;11.13;2.65;;;512.90;1920.00;;;;;;5084807;28;20036;-82
2021/05/13 11:30:25;;;;;;;10.43;2.95;;;512.80;1843.20;;;;;;5070139;28;20522;-83
2021/05/13 11:32:51;;;;;;;5.75;2.03;;;512.60;1843.20;;;;;;5072055;28;20678;-81
2021/05/13 11:35:22;;;;;;;9.02;2.63;;;512.40;1868.80;;;;;;5071819;28;20377;-85
2021/05/13 11:37:54;;;;;;;14.23;2.28;;;512.30;1894.40;;;;;;5060620;28;20028;-82
2021/05/13 11:40:29;;;;;;;12.02;2.17;;;487.20;1920.00;;;;;;5055929;28;20036;-84
2021/05/13 11:43:24;;;;;;;15.68;3.33;;;486.90;1945.60;;;;;;5070424;28;20170;-85
2021/05/13 11:45:53;;;;;;;7.43;2.03;;;486.80;1945.60;;;;;;5066223;28;20107;-85
2021/05/13 11:48:21;;;;;;;9.70;2.85;;;486.70;1894.40;;;;;;5070952;28;20146;-85
2021/05/13 11:50:49;;;;;;;10.75;2.10;;;486.60;1894.40;;;;;;5070586;28;20485;-86
2021/05/13 11:53:17;;;;;;;9.15;2.50;;;461.60;1945.60;;;;;;5072961;28;20026;-87
2021/05/13 11:55:46;;;;;;;11.13;2.60;;;461.70;2022.40;;;;;;5071951;28;20112;-85
2021/05/13 11:58:45;;;;;;;18.25;5.05;;;461.50;2022.40;;;;;;5081735;28;20028;-87
2021/05/13 12:01:18;;;;;;;10.82;2.70;;;461.40;2073.60;;;;;;5072534;28;20075;-88
2021/05/13 12:04:08;;;;;;;9.40;2.55;;;461.30;2073.60;;;;;;5072408;28;20051;-85
2021/05/13 12:06:57;;;;;;;19.95;2.97;;;461.20;2099.20;;;;;;5102312;28;20143;-86
2021/05/13 12:09:24;;;;;;;6.03;2.10;;;461.10;2201.60;;;;;;5089642;28;20022;-87
2021/05/13 12:11:52;;;;;;;10.73;5.72;;;461.00;2252.80;;;;;;5083787;28;20032;-88
2021/05/13 12:14:27;;;;;;;5.72;2.00;;;460.90;2278.40;;;;;;5068312;28;20028;-88
2021/05/13 12:17:04;;;;;;;9.23;2.33;;;460.80;2355.20;;;;;;5068626;28;20162;-88
2021/05/13 12:19:34;;;;;;;7.63;2.25;;;436.10;2355.20;;;;;;5070585;28;20036;-88
2021/05/13 12:22:11;;;;;;;7.13;2.80;;;436.10;2355.20;;;;;;5073447;28;20029;-88
2021/05/13 12:24:43;;;;;;;7.65;2.17;;;436.00;2355.20;;;;;;5074765;28;20135;-88
2021/05/13 12:27:17;;;;;;;5.53;2.03;;;460.80;2380.80;;;;;;5074867;28;20041;-88
2021/05/13 12:29:52;;;;;;;4.35;2.65;;;460.90;2380.80;;;;;;5073473;28;20021;-87
2021/05/13 12:32:32;;;;;;;5.35;2.85;;;461.10;2380.80;;;;;;5073976;28;20485;-88
2021/05/13 12:34:58;;;;;;;5.75;2.42;;;461.20;2380.80;;;;;;5075786;28;20047;-87
2021/05/13 12:37:23;;;;;;;7.97;3.15;;;461.40;2355.20;;;;;;5075629;28;20465;-88
2021/05/13 12:39:50;;;;;;;7.13;2.90;;;461.70;2278.40;;;;;;5076032;28;20068;-87
2021/05/13 12:42:42;;;;;;;11.82;2.72;;;486.40;2278.40;;;;;;5084291;28;20024;-87
2021/05/13 12:45:16;;;;;;;14.80;3.77;;;486.50;2227.20;;;;;;5082135;28;20037;-87
2021/05/13 12:47:43;;;;;;;15.57;3.60;;;486.70;2201.60;;;;;;5077332;28;20067;-86
2021/05/13 12:50:10;;;;;;;7.75;3.35;;;486.80;2252.80;;;;;;5076823;28;20039;-86
2021/05/13 12:52:36;;;;;;;12.95;2.83;;;487.00;2227.20;;;;;;5077100;28;20024;-85
2021/05/13 12:55:15;;;;;;;11.73;2.55;;;512.30;2176.00;;;;;;5076937;28;20033;-86
2021/05/13 12:57:44;;;;;;;6.63;2.15;;;537.90;2048.00;;;;;;5076682;28;20032;-85
2021/05/13 13:00:10;;;;;;;7.05;2.15;;;538.00;1996.80;;;;;;5076823;28;20474;-85
2021/05/13 13:02:36;;;;;;;12.15;2.60;;;537.90;1996.80;;;;;;5076208;28;20055;-86
2021/05/13 13:05:07;;;;;;;6.68;2.30;;;537.90;1945.60;;;;;;5076936;28;20115;-86
2021/05/13 13:07:44;;;;;;;6.88;2.70;;;538.50;1920.00;;;;;;5077715;28;20032;-86
2021/05/13 13:10:39;;;;;;;6.32;2.67;;;563.60;1894.40;;;;;;5076385;28;20078;-85
2021/05/13 13:13:12;;;;;;;8.95;2.25;;;538.50;1843.20;;;;;;5078142;28;20021;-85
2021/05/13 13:15:48;;;;;;;7.82;2.35;;;538.20;1894.40;;;;;;5077239;28;20030;-85
2021/05/13 13:18:17;;;;;;;7.80;2.38;;;538.00;1894.40;;;;;;5076331;28;20025;-86
2021/05/13 13:20:44;;;;;;;8.77;2.33;;;537.80;1894.40;;;;;;5076536;28;20077;-86
2021/05/13 13:23:22;;;;;;;5.53;1.83;;;537.60;1920.00;;;;;;5076285;28;20052;-85
2021/05/13 13:25:49;;;;;;;8.05;1.92;;;537.60;1996.80;;;;;;5076150;28;20032;-85
2021/05/13 13:28:17;;;;;;;6.07;1.98;;;512.90;1996.80;;;;;;5076156;28;20124;-86
2021/05/13 13:30:43;;;;;;;5.20;2.55;;;512.80;1971.20;;;;;;5076251;28;20039;-85
2021/05/13 13:33:18;;;;;;;6.32;2.10;;;512.80;2022.40;;;;;;5075900;28;20048;-85
2021/05/13 13:35:46;;;;;;;6.95;2.65;;;512.60;1971.20;;;;;;5076174;28;20055;-86
2021/05/13 13:38:13;;;;;;;8.40;2.42;;;512.60;1996.80;;;;;;5075497;28;20033;-86
2021/05/13 13:40:40;;;;;;;10.43;2.28;;;512.50;2022.40;;;;;;5075742;28;20029;-85
2021/05/13 13:43:08;;;;;;;6.55;2.17;;;512.50;2022.40;;;;;;5076099;28;20061;-84
2021/05/13 13:45:34;;;;;;;8.30;2.20;;;512.50;1996.80;;;;;;5075774;28;20048;-83
2021/05/13 13:48:07;;;;;;;6.03;1.75;;;512.30;1996.80;;;;;;5075776;28;20462;-85
2021/05/13 13:50:41;;;;;;;7.15;2.20;;;512.30;2022.40;;;;;;5075430;28;20042;-86
2021/05/13 13:53:08;;;;;;;8.15;3.10;;;512.30;2048.00;;;;;;5075678;28;20466;-82
2021/05/13 13:55:35;;;;;;;7.82;3.13;;;512.30;2099.20;;;;;;5074499;28;20031;-82
2021/05/13 13:58:01;;;;;;;4.93;2.03;;;512.30;2304.00;;;;;;5075154;28;20021;-81
2021/05/13 14:00:28;;;;;;;5.28;1.73;;;512.30;2355.20;;;;;;5074812;28;20492;-81
2021/05/13 14:02:56;;;;;;;5.80;1.90;;;512.40;2304.00;;;;;;5074926;28;20048;-84
2021/05/13 14:05:23;;;;;;;12.18;2.13;;;512.90;2329.60;;;;;;5075029;28;20086;-83
2021/05/13 14:07:49;;;;;;;25.08;22.90;;;512.90;2304.00;;;;;;5074644;28;20539;-81
2021/05/13 14:10:16;;;;;;;10.02;8.27;;;512.90;2176.00;;;;;;5074714;28;20029;-82
2021/05/13 14:12:44;;;;;;;12.65;4.57;;;537.60;2201.60;;;;;;5074506;28;20052;-84
2021/05/13 14:15:11;;;;;;;11.27;2.92;;;537.60;2252.80;;;;;;5075555;28;20020;-84
2021/05/13 14:17:37;;;;;;;4.38;1.77;;;537.70;2176.00;;;;;;5074702;28;20074;-83
2021/05/13 14:20:06;;;;;;;6.53;2.15;;;537.80;2124.80;;;;;;5077386;28;20083;-83
2021/05/13 14:22:32;;;;;;;4.25;1.92;;;537.90;2150.40;;;;;;5077717;28;20513;-83
2021/05/13 14:24:58;;;;;;;4.50;1.88;;;537.80;1971.20;;;;;;5096159;28;20030;-84
2021/05/13 14:27:24;;;;;;;10.98;2.60;;;537.60;1971.20;;;;;;5077474;28;20036;-83
2021/05/13 14:29:50;;;;;;;7.72;1.90;;;537.90;1971.20;;;;;;5077771;28;20119;-83
2021/05/13 14:32:16;;;;;;;5.80;1.90;;;563.40;1843.20;;;;;;5077987;28;20421;-84
2021/05/13 14:34:42;;;;;;;5.75;1.88;;;563.80;1792.00;;;;;;5077880;28;20035;-80
2021/05/13 14:37:09;;;;;;;5.50;1.60;;;564.10;1689.60;;;;;;5096109;28;20028;-83
2021/05/13 14:39:36;;;;;;;4.95;1.63;;;589.10;1689.60;;;;;;5078682;28;20425;-83
2021/05/13 14:42:02;;;;;;;6.40;2.00;;;589.10;1612.80;;;;;;5077964;28;20074;-84
2021/05/13 14:44:28;;;;;;;9.07;1.95;;;589.20;1587.20;;;;;;5078316;28;20024;-85
2021/05/13 14:46:54;;;;;;;6.82;2.05;;;588.90;1612.80;;;;;;5078205;28;20507;-84
2021/05/13 14:49:30;;;;;;;5.38;1.65;;;588.80;1587.20;;;;;;5079137;28;20028;-86
2021/05/13 14:51:58;;;;;;;7.13;1.40;;;564.10;1638.40;;;;;;5074035;28;20060;-82
2021/05/13 14:54:26;;;;;;;6.70;1.90;;;588.80;1612.80;;;;;;5072227;28;20619;-83
2021/05/13 14:56:58;;;;;;;8.02;2.08;;;588.80;1612.80;;;;;;5083119;28;20024;-78
2021/05/13 14:59:24;;;;;;;5.30;1.90;;;588.80;1612.80;;;;;;5069998;28;20071;-80
2021/05/13 15:01:53;;;;;;;7.75;2.67;;;564.00;1612.80;;;;;;5074163;28;20493;-81
2021/05/13 15:04:20;;;;;;;6.38;2.60;;;563.60;1664.00;;;;;;5072479;28;20044;-84
2021/05/13 15:06:45;;;;;;;8.38;3.30;;;563.40;1664.00;;;;;;5075053;28;20063;-81
2021/05/13 15:09:11;;;;;;;6.28;1.70;;;563.40;1766.40;;;;;;5071986;28;20064;-81
2021/05/13 15:11:38;;;;;;;5.38;1.70;;;563.20;1689.60;;;;;;5060950;28;20485;-82
2021/05/13 15:14:04;;;;;;;3.55;1.75;;;538.50;1638.40;;;;;;5072773;28;20484;-83
2021/05/13 15:16:31;;;;;;;5.45;1.80;;;538.30;1638.40;;;;;;5074728;28;20100;-80
2021/05/13 15:18:56;;;;;;;6.47;1.60;;;538.10;1664.00;;;;;;5069155;28;20020;-82
2021/05/13 15:21:22;;;;;;;5.20;2.85;;;538.00;1689.60;;;;;;5068528;28;20046;-81
2021/05/13 15:23:48;;;;;;;3.83;1.48;;;537.90;1689.60;;;;;;5065859;28;20060;-82
2021/05/13 15:26:15;;;;;;;4.85;1.60;;;538.00;1664.00;;;;;;5059016;28;20043;-86
2021/05/13 15:28:41;;;;;;;4.18;1.70;;;538.00;1689.60;;;;;;5069003;28;20031;-82
2021/05/13 15:31:10;;;;;;;5.07;1.50;;;538.40;1664.00;;;;;;5066027;28;20024;-83
2021/05/13 15:33:37;;;;;;;2.60;1.20;;;538.40;1664.00;;;;;;5062230;28;20463;-85
2021/05/13 15:36:04;;;;;;;4.45;2.20;;;538.10;1689.60;;;;;;5064773;28;20111;-84
2021/05/13 15:38:30;;;;;;;7.15;2.70;;;538.50;1715.20;;;;;;5073767;28;20101;-83
2021/05/13 15:40:56;;;;;;;6.28;1.90;;;537.60;1740.80;;;;;;5093571;28;20059;-79
2021/05/13 15:43:22;;;;;;;6.68;1.40;;;512.90;1740.80;;;;;;5075420;28;20031;-83
2021/05/13 15:45:48;;;;;;;6.18;2.08;;;512.60;1740.80;;;;;;5093436;28;20036;-82
2021/05/13 15:48:14;;;;;;;7.57;1.40;;;512.60;1740.80;;;;;;5072978;28;20039;-82
2021/05/13 15:50:42;;;;;;;5.28;1.35;;;512.30;1766.40;;;;;;5070096;28;20020;-82
2021/05/13 15:53:09;;;;;;;5.68;1.60;;;512.00;1792.00;;;;;;5061560;28;20071;-80
2021/05/13 15:55:36;;;;;;;5.40;1.50;;;487.30;1817.60;;;;;;5055108;28;20539;-82
2021/05/13 15:58:03;;;;;;;8.43;1.77;;;487.30;1843.20;;;;;;5054702;28;20028;-83
2021/05/13 16:00:29;;;;;;;3.88;1.92;;;487.10;1868.80;;;;;;5056180;28;20040;-83
2021/05/13 16:02:56;;;;;;;4.50;2.15;;;487.10;1894.40;;;;;;5080196;28;20090;-82
2021/05/13 16:05:23;;;;;;;8.50;2.80;;;487.00;1920.00;;;;;;5092903;28;20095;-85